createdAt,value
2022-10-28T00:01:10.387Z,67.39
2022-10-28T00:03:39.626Z,68.17
2022-10-28T00:06:08.641Z,67.30
2022-10-28T00:08:36.010Z,67.71
2022-10-28T00:11:08.181Z,67.10
2022-10-28T00:13:35.679Z,66.87
2022-10-28T00:16:14.113Z,67.06
2022-10-28T00:18:41.767Z,67.65
2022-10-28T00:21:14.606Z,66.92
2022-10-28T00:23:42.262Z,66.12
2022-10-28T00:26:10.645Z,66.97
2022-10-28T00:28:58.750Z,67.21
2022-10-28T00:31:27.031Z,66.77
2022-10-28T00:33:54.496Z,67.47
2022-10-28T00:36:26.540Z,69.99
2022-10-28T00:38:55.215Z,68.75
2022-10-28T00:41:26.099Z,67.73
2022-10-28T00:43:55.537Z,68.90
2022-10-28T00:46:41.203Z,68.07
2022-10-28T00:49:19.139Z,67.96
2022-10-28T00:51:46.965Z,68.19
2022-10-28T00:54:14.728Z,67.62
2022-10-28T00:56:46.517Z,68.00
2022-10-28T00:59:18.789Z,68.46
2022-10-28T01:01:46.487Z,68.07
2022-10-28T01:04:14.085Z,67.79
2022-10-28T01:06:41.412Z,67.56
2022-10-28T01:09:09.069Z,67.35
2022-10-28T01:11:44.294Z,67.31
2022-10-28T01:14:20.826Z,67.37
2022-10-28T01:17:31.346Z,67.24
2022-10-28T01:20:34.890Z,67.14
2022-10-28T01:23:28.060Z,66.87
2022-10-28T01:26:14.297Z,66.98
2022-10-28T01:28:53.421Z,66.26
2022-10-28T01:31:31.324Z,66.21
2022-10-28T01:34:49.422Z,66.88
2022-10-28T01:37:21.007Z,68.72
2022-10-28T01:39:54.190Z,69.12
2022-10-28T01:42:38.718Z,67.99
2022-10-28T01:45:25.822Z,68.94
2022-10-28T01:47:55.685Z,68.53
2022-10-28T01:50:37.331Z,72.31
2022-10-28T01:53:07.735Z,70.08
2022-10-28T01:55:37.719Z,68.87
2022-10-28T01:58:05.489Z,69.58
2022-10-28T02:00:33.324Z,68.71
2022-10-28T02:03:00.986Z,68.40
2022-10-28T02:05:44.366Z,67.84
2022-10-28T02:08:18.055Z,68.66
2022-10-28T02:11:18.290Z,70.60
2022-10-28T02:13:55.530Z,69.93
2022-10-28T02:16:41.533Z,69.59
2022-10-28T02:19:09.359Z,71.42
2022-10-28T02:21:59.563Z,69.36
2022-10-28T02:24:46.467Z,72.38
2022-10-28T02:27:35.615Z,70.75
2022-10-28T02:30:07.550Z,69.99
2022-10-28T02:32:40.024Z,69.09
2022-10-28T02:35:10.416Z,69.67
2022-10-28T02:37:37.728Z,69.23
2022-10-28T02:40:07.144Z,68.98
2022-10-28T02:42:37.188Z,68.63
2022-10-28T02:45:25.709Z,68.45
2022-10-28T02:47:58.038Z,67.69
2022-10-28T02:50:29.281Z,68.70
2022-10-28T02:52:58.759Z,68.81
2022-10-28T02:55:28.953Z,68.53
2022-10-28T02:57:56.689Z,68.79
2022-10-28T03:00:25.018Z,69.51
2022-10-28T03:02:52.356Z,68.92
2022-10-28T03:05:20.778Z,69.69
2022-10-28T03:07:48.122Z,69.29
2022-10-28T03:10:15.660Z,69.24
2022-10-28T03:12:43.264Z,69.36
2022-10-28T03:15:11.039Z,68.22
2022-10-28T03:17:38.369Z,67.98
2022-10-28T03:20:06.394Z,67.01
2022-10-28T03:22:33.728Z,69.03
2022-10-28T03:25:01.058Z,73.13
2022-10-28T03:27:28.655Z,71.74
2022-10-28T03:29:55.998Z,70.66
2022-10-28T03:32:23.332Z,70.36
2022-10-28T03:34:50.948Z,70.19
2022-10-28T03:37:18.286Z,69.66
2022-10-28T03:39:45.602Z,69.88
2022-10-28T03:42:13.221Z,69.71
2022-10-28T03:44:40.545Z,68.30
2022-10-28T03:47:07.896Z,69.92
2022-10-28T03:49:35.479Z,69.80
2022-10-28T03:52:04.061Z,69.23
2022-10-28T03:54:31.400Z,69.75
2022-10-28T03:56:58.971Z,70.79
2022-10-28T03:59:26.278Z,69.34
2022-10-28T04:01:53.721Z,72.46
2022-10-28T04:04:21.474Z,70.37
2022-10-28T04:06:48.809Z,69.62
2022-10-28T04:09:16.125Z,71.70
2022-10-28T04:11:43.723Z,71.24
2022-10-28T04:14:11.066Z,71.10
2022-10-28T04:16:38.395Z,69.40
2022-10-28T04:19:05.994Z,69.75
2022-10-28T04:21:33.417Z,70.63
2022-10-28T04:24:00.730Z,71.87
2022-10-28T04:26:28.342Z,70.50
2022-10-28T04:28:55.686Z,69.99
2022-10-28T04:31:23.034Z,69.76
2022-10-28T04:33:50.973Z,71.95
2022-10-28T04:36:19.162Z,71.86
2022-10-28T04:38:46.519Z,73.87
2022-10-28T04:41:14.484Z,73.38
2022-10-28T04:43:41.788Z,74.80
2022-10-28T04:46:09.208Z,72.78
2022-10-28T04:48:36.883Z,72.23
2022-10-28T04:51:04.342Z,72.06
2022-10-28T04:53:31.709Z,71.55
2022-10-28T04:55:59.442Z,71.47
2022-10-28T04:58:26.785Z,75.31
2022-10-28T05:00:54.110Z,75.56
2022-10-28T05:03:21.725Z,78.66
2022-10-28T05:05:49.080Z,75.89
2022-10-28T05:08:16.416Z,73.81
2022-10-28T05:10:45.181Z,73.11
2022-10-28T05:13:12.494Z,72.81
2022-10-28T05:15:39.829Z,78.56
2022-10-28T05:18:07.506Z,78.35
2022-10-28T05:20:34.849Z,78.53
2022-10-28T05:23:02.192Z,75.98
2022-10-28T05:25:29.800Z,76.13
2022-10-28T05:28:00.243Z,77.03
2022-10-28T05:30:27.978Z,76.51
2022-10-28T05:33:01.001Z,75.95
2022-10-28T05:35:29.358Z,76.59
2022-10-28T05:37:56.997Z,75.84
2022-10-28T05:40:24.492Z,74.09
2022-10-28T05:42:52.100Z,73.81
2022-10-28T05:45:20.026Z,73.42
2022-10-28T05:47:48.287Z,73.18
2022-10-28T05:50:17.572Z,73.13
2022-10-28T05:52:49.435Z,73.03
2022-10-28T05:55:19.480Z,72.34
2022-10-28T05:57:47.643Z,72.05
2022-10-28T06:00:15.190Z,72.28
2022-10-28T06:02:42.943Z,71.23
2022-10-28T06:05:12.048Z,72.33
2022-10-28T06:07:39.807Z,71.74
2022-10-28T06:10:08.516Z,71.10
2022-10-28T06:12:36.868Z,71.24
2022-10-28T06:15:04.466Z,71.44
2022-10-28T06:17:32.143Z,71.62
2022-10-28T06:19:59.511Z,72.03
2022-10-28T06:22:26.902Z,71.36
2022-10-28T06:24:54.505Z,71.83
2022-10-28T06:27:21.856Z,70.59
2022-10-28T06:29:49.199Z,73.18
2022-10-28T06:32:16.784Z,71.64
2022-10-28T06:34:44.106Z,70.40
2022-10-28T06:37:12.679Z,70.43
2022-10-28T06:39:42.000Z,69.90
2022-10-28T06:42:09.349Z,70.73
2022-10-28T06:44:36.668Z,70.39
2022-10-28T06:47:05.833Z,69.89
2022-10-28T06:49:33.232Z,69.91
2022-10-28T06:52:00.950Z,70.53
2022-10-28T06:54:28.659Z,69.96
2022-10-28T06:56:56.003Z,69.50
2022-10-28T06:59:23.353Z,68.86
2022-10-28T07:01:51.057Z,69.52
2022-10-28T07:04:18.496Z,69.01
2022-10-28T07:06:48.583Z,70.51
2022-10-28T07:09:18.933Z,70.03
2022-10-28T07:11:52.154Z,70.14
2022-10-28T07:14:21.335Z,68.44
2022-10-28T07:16:48.661Z,67.95
2022-10-28T07:19:19.024Z,68.96
2022-10-28T07:21:49.377Z,69.59
2022-10-28T07:24:16.748Z,69.53
2022-10-28T07:26:44.129Z,69.84
2022-10-28T07:29:11.703Z,68.92
2022-10-28T07:31:38.998Z,69.71
2022-10-28T07:34:06.361Z,68.67
2022-10-28T07:36:34.003Z,68.39
2022-10-28T07:39:03.771Z,68.84
2022-10-28T07:41:31.313Z,68.37
2022-10-28T07:43:58.931Z,69.41
2022-10-28T07:46:26.271Z,67.06
2022-10-28T07:48:53.625Z,67.41
2022-10-28T07:51:21.251Z,68.02
2022-10-28T07:53:48.674Z,68.53
2022-10-28T07:56:16.203Z,68.24
2022-10-28T07:58:44.371Z,66.87
2022-10-28T08:01:14.477Z,68.49
2022-10-28T08:03:42.188Z,68.00
2022-10-28T08:06:13.249Z,68.15
2022-10-28T08:08:40.678Z,67.12
2022-10-28T08:11:22.652Z,66.19
2022-10-28T08:13:50.901Z,66.31
2022-10-28T08:16:18.587Z,66.57
2022-10-28T08:18:46.201Z,67.04
2022-10-28T08:21:13.632Z,66.97
2022-10-28T08:23:41.769Z,67.04
2022-10-28T08:26:09.105Z,66.05
2022-10-28T08:28:36.491Z,67.71
2022-10-28T08:31:08.573Z,67.20
2022-10-28T08:33:37.969Z,66.22
2022-10-28T08:36:09.610Z,67.14
2022-10-28T08:38:39.567Z,66.91
2022-10-28T08:41:46.745Z,66.49
2022-10-28T08:44:34.844Z,67.56
2022-10-28T08:47:21.348Z,69.19
2022-10-28T08:49:49.500Z,67.10
2022-10-28T08:52:38.122Z,67.73
2022-10-28T08:55:07.992Z,76.14
2022-10-28T08:57:40.753Z,73.44
2022-10-28T09:00:20.372Z,71.15
2022-10-28T09:02:53.952Z,70.43
2022-10-28T09:05:22.952Z,68.51
2022-10-28T09:07:50.701Z,68.15
2022-10-28T09:10:20.090Z,67.77
2022-10-28T09:13:11.647Z,67.39
2022-10-28T09:18:22.992Z,66.05
2022-10-28T09:20:55.723Z,65.52
2022-10-28T09:23:57.798Z,64.91
2022-10-28T09:26:40.364Z,64.43
2022-10-28T09:29:18.119Z,63.81
2022-10-28T09:31:47.564Z,65.83
2022-10-28T09:34:34.176Z,66.29
2022-10-28T09:37:11.273Z,64.51
2022-10-28T09:39:50.464Z,64.29
2022-10-28T09:42:35.138Z,65.01
2022-10-28T09:45:04.839Z,66.09
2022-10-28T09:47:37.988Z,65.85
2022-10-28T09:50:08.400Z,65.94
2022-10-28T09:52:56.548Z,65.42
2022-10-28T09:55:23.891Z,65.46
2022-10-28T09:57:51.773Z,66.09
2022-10-28T10:00:19.367Z,64.07
2022-10-28T10:02:47.092Z,64.54
2022-10-28T10:05:17.927Z,64.67
2022-10-28T10:07:53.919Z,66.65
2022-10-28T10:10:27.321Z,64.78
2022-10-28T10:12:59.487Z,64.30
2022-10-28T10:15:32.191Z,64.27
2022-10-28T10:18:00.841Z,64.30
2022-10-28T10:20:28.565Z,64.66
2022-10-28T10:22:56.166Z,64.56
2022-10-28T10:25:29.943Z,64.23
2022-10-28T10:27:59.574Z,64.82
2022-10-28T10:30:38.086Z,63.82
2022-10-28T10:33:05.931Z,64.31
2022-10-28T10:35:37.297Z,64.35
2022-10-28T10:38:09.036Z,63.97
2022-10-28T10:40:48.268Z,63.73
2022-10-28T10:43:18.239Z,64.20
2022-10-28T10:46:03.097Z,63.42
2022-10-28T10:48:36.227Z,64.47
2022-10-28T10:51:23.278Z,64.21
2022-10-28T10:53:52.147Z,63.71
2022-10-28T10:56:30.782Z,64.36
2022-10-28T10:59:06.468Z,64.05
2022-10-28T11:01:38.763Z,63.87
2022-10-28T11:04:06.927Z,64.18
2022-10-28T11:06:37.095Z,63.69
2022-10-28T11:09:06.205Z,62.44
2022-10-28T11:11:40.141Z,63.56
2022-10-28T11:14:10.743Z,63.19
2022-10-28T11:16:54.432Z,63.31
2022-10-28T11:19:23.427Z,63.13
2022-10-28T11:22:13.662Z,63.80
2022-10-28T11:25:18.728Z,63.43
2022-10-28T11:28:24.323Z,64.03
2022-10-28T11:31:00.827Z,63.78
2022-10-28T11:33:50.018Z,63.91
2022-10-28T11:36:28.823Z,63.13
2022-10-28T11:39:05.163Z,64.02
2022-10-28T11:42:07.247Z,64.57
2022-10-28T11:44:54.590Z,64.05
2022-10-28T11:47:37.789Z,63.59
2022-10-28T11:50:08.134Z,64.25
2022-10-28T11:52:49.962Z,64.06
2022-10-28T11:55:36.031Z,64.85
2022-10-28T11:58:21.381Z,65.09
2022-10-28T12:01:04.965Z,64.96
2022-10-28T12:03:51.313Z,64.57
2022-10-28T12:06:32.522Z,65.29
2022-10-28T12:09:34.196Z,65.19
2022-10-28T12:12:10.048Z,64.99
2022-10-28T12:14:40.220Z,65.18
2022-10-28T12:17:18.105Z,65.47
2022-10-28T12:19:59.786Z,64.90
2022-10-28T12:22:29.635Z,63.86
2022-10-28T12:24:57.343Z,63.85
2022-10-28T12:27:30.140Z,65.20
2022-10-28T12:30:01.079Z,64.73
2022-10-28T12:32:30.337Z,65.44
2022-10-28T12:35:18.169Z,64.93
2022-10-28T12:38:15.097Z,64.80
2022-10-28T12:40:59.874Z,63.90
2022-10-28T12:43:33.971Z,64.03
2022-10-28T12:46:01.699Z,64.68
2022-10-28T12:48:45.731Z,64.32
2022-10-28T12:51:34.393Z,64.76
2022-10-28T12:54:10.013Z,64.46
2022-10-28T12:56:38.096Z,64.86
2022-10-28T12:59:30.747Z,65.52
2022-10-28T13:02:01.351Z,64.65
2022-10-28T13:04:28.959Z,64.61
2022-10-28T13:07:10.063Z,64.89
2022-10-28T13:09:43.693Z,65.30
2022-10-28T13:13:12.585Z,65.62
2022-10-28T13:15:59.396Z,65.24
2022-10-28T13:18:54.189Z,65.60
2022-10-28T13:21:33.754Z,65.75
2022-10-28T13:24:13.742Z,65.03
2022-10-28T13:26:42.286Z,64.55
2022-10-28T13:29:21.968Z,66.17
2022-10-28T13:31:49.615Z,66.52
2022-10-28T13:34:18.043Z,65.98
2022-10-28T13:36:46.948Z,66.28
2022-10-28T13:39:29.771Z,66.96
2022-10-28T13:42:16.020Z,67.67
2022-10-28T13:44:56.568Z,66.17
2022-10-28T13:47:34.399Z,67.45
2022-10-28T13:50:09.313Z,66.87
2022-10-28T13:52:41.064Z,67.33
2022-10-28T13:55:41.692Z,68.05
2022-10-28T13:58:20.466Z,68.04
2022-10-28T14:00:50.579Z,68.17
2022-10-28T14:03:22.807Z,68.41
2022-10-28T14:05:52.273Z,67.75
2022-10-28T14:08:31.049Z,67.70
2022-10-28T14:11:04.120Z,67.39
2022-10-28T14:13:38.964Z,69.19
2022-10-28T14:16:38.328Z,68.94
2022-10-28T14:19:11.565Z,68.80
2022-10-28T14:22:05.438Z,68.34
2022-10-28T14:24:37.451Z,69.56
2022-10-28T14:27:08.072Z,69.97
2022-10-28T14:29:48.423Z,68.91
2022-10-28T14:32:31.013Z,69.81
2022-10-28T14:35:19.538Z,69.90
2022-10-28T14:38:02.280Z,69.62
2022-10-28T14:40:44.593Z,69.02
2022-10-28T14:43:23.916Z,68.74
2022-10-28T14:46:04.086Z,69.53
2022-10-28T14:48:47.669Z,68.76
2022-10-28T14:51:20.269Z,69.29
2022-10-28T14:53:48.004Z,69.71
2022-10-28T14:56:30.365Z,69.80
2022-10-28T14:59:19.080Z,68.96
2022-10-28T15:01:59.156Z,69.26
2022-10-28T15:04:26.900Z,68.68
2022-10-28T15:06:54.317Z,68.93
2022-10-28T15:09:32.641Z,69.23
2022-10-28T15:12:12.021Z,70.32
2022-10-28T15:14:52.027Z,70.44
2022-10-28T15:17:27.563Z,70.68
2022-10-28T15:19:56.390Z,70.38
2022-10-28T15:22:25.275Z,69.69
2022-10-28T15:24:56.255Z,69.94
2022-10-28T15:27:24.615Z,70.35
2022-10-28T15:29:52.208Z,69.80
2022-10-28T15:32:19.368Z,69.94
2022-10-28T15:34:47.133Z,68.66
2022-10-28T15:37:21.734Z,69.51
2022-10-28T15:39:50.927Z,70.21
2022-10-28T15:42:40.924Z,70.53
2022-10-28T15:45:24.021Z,71.44
2022-10-28T15:47:51.777Z,70.66
2022-10-28T15:50:19.368Z,70.41
2022-10-28T15:52:52.350Z,70.28
2022-10-28T15:55:21.781Z,70.93
2022-10-28T15:58:19.331Z,71.11
2022-10-28T16:00:54.154Z,70.89
2022-10-28T16:03:25.299Z,69.70
2022-10-28T16:05:55.079Z,70.34
2022-10-28T16:08:31.011Z,71.27
2022-10-28T16:11:04.628Z,70.20
2022-10-28T16:13:42.400Z,70.89
2022-10-28T16:16:13.343Z,70.31
2022-10-28T16:18:47.004Z,71.10
2022-10-28T16:21:18.953Z,70.74
2022-10-28T16:23:49.372Z,70.68
2022-10-28T16:26:18.215Z,71.14
2022-10-28T16:28:46.288Z,70.78
2022-10-28T16:31:16.144Z,70.11
2022-10-28T16:33:45.256Z,70.12
2022-10-28T16:36:13.536Z,72.79
2022-10-28T16:38:41.650Z,72.19
2022-10-28T16:41:17.006Z,71.63
2022-10-28T16:43:45.587Z,71.03
2022-10-28T16:46:14.184Z,70.57
2022-10-28T16:48:42.012Z,70.78
2022-10-28T16:51:16.582Z,71.30
2022-10-28T16:53:47.577Z,72.12
2022-10-28T16:56:16.507Z,71.86
2022-10-28T16:58:44.650Z,71.70
2022-10-28T17:01:12.804Z,71.01
2022-10-28T17:03:41.160Z,71.23
2022-10-28T17:06:10.630Z,70.92
2022-10-28T17:11:25.579Z,70.99
2022-10-28T17:13:52.989Z,70.87
2022-10-28T17:16:20.299Z,71.33
2022-10-28T17:18:49.636Z,71.29
2022-10-28T17:21:17.015Z,71.57
2022-10-28T17:23:44.312Z,71.24
2022-10-28T17:26:11.916Z,72.16
2022-10-28T17:28:39.299Z,71.47
2022-10-28T17:31:07.502Z,70.33
2022-10-28T17:33:35.128Z,70.70
2022-10-28T17:36:06.351Z,70.19
2022-10-28T17:38:33.704Z,71.40
2022-10-28T17:41:01.593Z,70.90
2022-10-28T17:43:28.973Z,71.65
2022-10-28T17:46:06.243Z,71.12
2022-10-28T17:48:34.189Z,69.88
2022-10-28T17:51:01.614Z,71.44
2022-10-28T17:53:28.977Z,71.15
2022-10-28T17:55:57.658Z,72.42
2022-10-28T17:58:25.109Z,71.99
2022-10-28T18:00:59.496Z,71.94
2022-10-28T18:03:27.162Z,71.15
2022-10-28T18:05:54.674Z,72.19
2022-10-28T18:08:22.281Z,71.99
2022-10-28T18:10:56.690Z,72.07
2022-10-28T18:13:28.041Z,71.47
2022-10-28T18:15:56.367Z,71.03
2022-10-28T18:18:26.689Z,71.36
2022-10-28T18:20:54.456Z,70.59
2022-10-28T18:23:25.051Z,70.75
2022-10-28T18:26:02.527Z,69.84
2022-10-28T18:28:30.648Z,70.33
2022-10-28T18:31:08.164Z,70.95
2022-10-28T18:33:35.831Z,72.08
2022-10-28T18:36:07.477Z,71.24
2022-10-28T18:38:34.832Z,71.01
2022-10-28T18:41:02.528Z,70.35
2022-10-28T18:43:29.879Z,70.01
2022-10-28T18:46:00.998Z,70.57
2022-10-28T18:48:28.706Z,70.84
2022-10-28T18:51:00.395Z,70.61
2022-10-28T18:53:27.926Z,70.28
2022-10-28T18:56:01.448Z,69.94
2022-10-28T18:58:28.865Z,70.49
2022-10-28T19:01:06.437Z,71.47
2022-10-28T19:03:33.832Z,71.24
2022-10-28T19:06:06.165Z,71.09
2022-10-28T19:08:33.733Z,70.47
2022-10-28T19:11:01.644Z,70.83
2022-10-28T19:13:29.131Z,70.14
2022-10-28T19:15:56.555Z,72.80
2022-10-28T19:18:24.228Z,72.52
2022-10-28T19:20:52.118Z,72.12
2022-10-28T19:23:19.517Z,71.38
2022-10-28T19:25:54.556Z,71.74
2022-10-28T19:28:22.011Z,72.83
2022-10-28T19:30:49.685Z,72.40
2022-10-28T19:33:17.019Z,72.79
2022-10-28T19:35:44.379Z,72.02
2022-10-28T19:38:11.992Z,70.83
2022-10-28T19:40:39.294Z,73.51
2022-10-28T19:43:06.631Z,72.26
2022-10-28T19:45:34.207Z,72.18
2022-10-28T19:48:01.985Z,72.67
2022-10-28T19:50:29.304Z,72.74
2022-10-28T19:52:56.927Z,72.26
2022-10-28T19:55:24.287Z,72.49
2022-10-28T19:57:52.920Z,71.71
2022-10-28T20:00:20.771Z,71.73
2022-10-28T20:02:48.442Z,71.56
2022-10-28T20:05:15.883Z,71.62
2022-10-28T20:07:44.659Z,70.68
2022-10-28T20:10:12.262Z,71.09
2022-10-28T20:12:39.571Z,71.32
2022-10-28T20:15:07.459Z,71.58
2022-10-28T20:17:35.055Z,70.88
2022-10-28T20:20:02.383Z,71.06
2022-10-28T20:22:29.804Z,73.03
2022-10-28T20:24:57.414Z,72.50
2022-10-28T20:27:24.755Z,72.62
2022-10-28T20:29:52.329Z,72.75
2022-10-28T20:32:22.344Z,72.21
2022-10-28T20:34:49.720Z,72.14
2022-10-28T20:37:17.046Z,71.44
2022-10-28T20:39:44.627Z,71.52
2022-10-28T20:42:11.945Z,72.06
2022-10-28T20:44:39.266Z,71.70
2022-10-28T20:47:06.884Z,73.13
2022-10-28T20:49:34.244Z,72.10
2022-10-28T20:52:01.580Z,73.06
2022-10-28T20:54:29.183Z,71.48
2022-10-28T20:56:56.523Z,72.40
2022-10-28T20:59:23.927Z,71.81
2022-10-28T21:01:51.728Z,73.85
2022-10-28T21:04:19.243Z,72.04
2022-10-28T21:06:46.612Z,71.50
2022-10-28T21:09:14.247Z,72.43
2022-10-28T21:11:44.883Z,71.64
2022-10-28T21:14:12.227Z,70.94
2022-10-28T21:16:39.938Z,72.13
2022-10-28T21:19:07.304Z,72.18
2022-10-28T21:21:34.678Z,70.67
2022-10-28T21:24:02.331Z,71.40
2022-10-28T21:26:29.685Z,71.39
2022-10-28T21:28:57.080Z,70.74
2022-10-28T21:31:24.765Z,72.38
2022-10-28T21:33:53.019Z,71.50
2022-10-28T21:36:21.152Z,72.91
2022-10-28T21:38:48.773Z,71.93
2022-10-28T21:41:16.811Z,72.76
2022-10-28T21:43:45.467Z,72.68
2022-10-28T21:46:13.100Z,73.20
2022-10-28T21:48:40.442Z,72.76
2022-10-28T21:51:11.833Z,72.38
2022-10-28T21:53:42.999Z,70.80
2022-10-28T21:56:17.514Z,71.67
2022-10-28T21:58:47.113Z,71.87
2022-10-28T22:01:19.893Z,71.15
2022-10-28T22:03:47.595Z,72.35
2022-10-28T22:06:14.981Z,71.13
2022-10-28T22:08:42.375Z,69.70
2022-10-28T22:11:12.369Z,71.22
2022-10-28T22:13:39.691Z,71.73
2022-10-28T22:16:08.569Z,71.01
2022-10-28T22:18:36.430Z,70.77
2022-10-28T22:21:07.800Z,71.21
2022-10-28T22:23:35.493Z,71.68
2022-10-28T22:26:07.367Z,71.58
2022-10-28T22:28:34.777Z,71.37
2022-10-28T22:31:03.893Z,71.72
2022-10-28T22:33:31.599Z,71.46
2022-10-28T22:36:03.681Z,70.57
2022-10-28T22:38:31.085Z,71.20
2022-10-28T22:41:03.531Z,71.09
2022-10-28T22:43:30.859Z,71.28
2022-10-28T22:45:58.765Z,71.59
2022-10-28T22:48:26.453Z,71.87
2022-10-28T22:50:53.786Z,72.20
2022-10-28T22:53:21.187Z,72.50
2022-10-28T22:55:48.888Z,71.79
2022-10-28T22:58:16.547Z,71.60
2022-10-28T23:00:44.150Z,71.04
2022-10-28T23:03:12.341Z,70.71
2022-10-28T23:05:39.916Z,69.99
2022-10-28T23:08:07.362Z,70.22
2022-10-28T23:10:34.954Z,70.67
2022-10-28T23:13:02.496Z,70.52
2022-10-28T23:15:29.872Z,70.65
2022-10-28T23:17:57.745Z,71.69
2022-10-28T23:20:25.449Z,72.05
2022-10-28T23:22:55.379Z,71.99
2022-10-28T23:25:22.955Z,71.77
2022-10-28T23:27:50.277Z,71.04
2022-10-28T23:30:17.619Z,71.31
2022-10-28T23:32:45.176Z,70.89
2022-10-28T23:35:12.503Z,72.60
2022-10-28T23:37:39.841Z,71.81
2022-10-28T23:42:42.296Z,70.34
2022-10-28T23:45:09.996Z,70.08
2022-10-28T23:47:37.304Z,71.07
2022-10-28T23:50:04.920Z,72.13
2022-10-28T23:52:32.492Z,70.04
2022-10-28T23:54:59.836Z,70.67
2022-10-28T23:57:27.187Z,70.33
2022-10-28T23:59:54.763Z,71.13
